Time;durP1;ratioP1;P1;durP2;ratioP2;P2;SDS_P1;SDS_P2;PMS_P1;PMS_P2;Temp;Humidity;BMP_temperature;BMP_pressure;BME280_temperature;BME280_humidity;BME280_pressure;Samples;Min_cycle;Max_cycle;Signal;HPM_P1;HPM_P2
2023/05/25 00:01:15;;;;;;;18.33;8.77;;;;;;;17.09;65.73;100328.73;123163;1099;104348;-75
2023/05/25 00:03:46;;;;;;;17.10;8.27;;;;;;;17.06;65.46;100334.91;123616;1099;104401;-75
2023/05/25 00:06:14;;;;;;;17.30;7.90;;;;;;;17.05;66.56;100329.61;124233;1099;104344;-75
2023/05/25 00:08:42;;;;;;;17.87;8.37;;;;;;;17.02;66.48;100326.94;123757;1099;104267;-74
2023/05/25 00:11:11;;;;;;;16.00;8.00;;;;;;;16.97;66.42;100329.55;123463;1099;104820;-75
2023/05/25 00:13:39;;;;;;;15.70;8.40;;;;;;;16.92;66.45;100331.26;123386;1099;104395;-74
2023/05/25 00:16:09;;;;;;;18.00;8.45;;;;;;;16.87;66.41;100333.88;123406;1099;104280;-74
2023/05/25 00:18:37;;;;;;;18.10;8.60;;;;;;;16.84;66.63;100339.16;123253;1099;104357;-74
2023/05/25 00:21:06;;;;;;;17.00;8.23;;;;;;;16.76;67.09;100346.13;123166;1099;104438;-73
2023/05/25 00:23:34;;;;;;;14.20;8.07;;;;;;;16.73;66.85;100343.45;123452;1099;104267;-75
2023/05/25 00:26:03;;;;;;;15.90;8.57;;;;;;;16.70;67.68;100348.73;123461;1099;104373;-76
2023/05/25 00:28:32;;;;;;;16.37;8.03;;;;;;;16.64;67.06;100340.73;123645;1099;104271;-76
2023/05/25 00:31:00;;;;;;;18.00;8.53;;;;;;;16.58;67.64;100346.89;123645;1099;104269;-75
2023/05/25 00:33:28;;;;;;;19.97;9.23;;;;;;;16.52;67.66;100341.53;123460;1099;104338;-76
2023/05/25 00:35:57;;;;;;;19.33;8.63;;;;;;;16.46;67.81;100345.00;123490;1099;104309;-76
2023/05/25 00:38:25;;;;;;;20.53;8.93;;;;;;;16.47;67.91;100341.49;123421;1099;104411;-75
2023/05/25 00:40:56;;;;;;;17.73;8.87;;;;;;;16.50;67.19;100344.17;123462;1099;104239;-76
2023/05/25 00:43:24;;;;;;;18.27;8.87;;;;;;;16.50;67.67;100349.47;123160;1099;104275;-77
2023/05/25 00:45:53;;;;;;;20.50;9.40;;;;;;;16.46;68.74;100355.59;123392;1099;104335;-74
2023/05/25 00:48:23;;;;;;;17.63;8.50;;;;;;;16.40;68.94;100359.95;123442;1099;104287;-74
2023/05/25 00:50:56;;;;;;;19.30;9.07;;;;;;;16.33;68.82;100362.55;123402;1098;104329;-75
2023/05/25 00:53:25;;;;;;;18.95;8.63;;;;;;;16.27;69.32;100366.90;123544;1099;104283;-75
2023/05/25 00:56:01;;;;;;;16.67;9.27;;;;;;;16.23;69.91;100378.31;123380;1099;104278;-76
2023/05/25 00:58:33;;;;;;;21.27;9.23;;;;;;;16.21;68.62;100382.72;123399;1098;104322;-75
2023/05/25 01:01:03;;;;;;;15.63;8.23;;;;;;;16.18;69.22;100379.14;123509;1099;104297;-74
2023/05/25 01:03:36;;;;;;;17.83;8.53;;;;;;;16.15;69.51;100379.11;123588;1099;104413;-75
2023/05/25 01:06:10;;;;;;;18.93;9.03;;;;;;;16.18;69.10;100375.62;123193;1099;104348;-76
2023/05/25 01:08:41;;;;;;;16.40;8.30;;;;;;;16.20;69.37;100386.23;123441;1099;104332;-76
2023/05/25 01:11:13;;;;;;;19.00;8.97;;;;;;;16.17;68.91;100380.03;123423;1098;104334;-75
2023/05/25 01:13:43;;;;;;;17.47;8.50;;;;;;;16.20;68.99;100372.98;123399;1099;104309;-76
2023/05/25 01:16:12;;;;;;;21.83;8.50;;;;;;;16.22;69.39;100374.80;124023;1098;104434;-75
2023/05/25 01:18:43;;;;;;;16.93;8.77;;;;;;;16.24;69.16;100374.81;123442;1099;104350;-74
2023/05/25 01:21:19;;;;;;;17.10;7.87;;;;;;;16.24;69.37;100378.33;123418;1099;104756;-76
2023/05/25 01:23:55;;;;;;;18.07;8.70;;;;;;;16.25;69.18;100380.13;123362;1099;104796;-76
2023/05/25 01:26:26;;;;;;;17.93;8.40;;;;;;;16.24;68.89;100377.45;123438;1099;104290;-75
2023/05/25 01:28:57;;;;;;;17.90;8.33;;;;;;;16.22;69.30;100366.85;123404;1099;104223;-76
2023/05/25 01:31:26;;;;;;;17.73;8.10;;;;;;;16.22;69.09;100372.14;123428;1099;104316;-76
2023/05/25 01:33:55;;;;;;;18.07;7.63;;;;;;;16.20;69.22;100373.86;123504;1099;104267;-75
2023/05/25 01:36:24;;;;;;;21.97;8.40;;;;;;;16.17;69.07;100366.80;123451;1099;104316;-75
2023/05/25 01:38:53;;;;;;;18.10;8.30;;;;;;;16.16;69.29;100364.14;123446;1099;104855;-74
2023/05/25 01:41:21;;;;;;;20.60;8.90;;;;;;;16.14;69.70;100365.86;123386;1099;104414;-75
2023/05/25 01:43:50;;;;;;;24.50;9.17;;;;;;;16.13;69.45;100366.75;123384;1099;104348;-75
2023/05/25 01:46:30;;;;;;;19.60;8.80;;;;;;;16.13;70.07;100367.62;123502;1098;104248;-75
2023/05/25 01:49:08;;;;;;;17.93;8.17;;;;;;;16.12;70.14;100357.90;123429;1099;104759;-75
2023/05/25 01:51:43;;;;;;;15.47;8.50;;;;;;;16.11;69.10;100355.23;123575;1099;104250;-76
2023/05/25 01:54:17;;;;;;;17.23;7.90;;;;;;;16.16;70.02;100354.42;123484;1099;104316;-75
2023/05/25 01:56:49;;;;;;;15.63;8.20;;;;;;;16.22;69.48;100358.00;123460;1099;104252;-74
2023/05/25 01:59:21;;;;;;;15.87;8.03;;;;;;;16.21;69.43;100361.54;123403;1098;104312;-74
2023/05/25 02:01:51;;;;;;;15.17;8.33;;;;;;;16.20;69.64;100354.45;123517;1099;104319;-74
2023/05/25 02:04:21;;;;;;;19.80;9.50;;;;;;;16.13;69.91;100354.39;123490;1099;104274;-75
2023/05/25 02:06:51;;;;;;;17.87;8.30;;;;;;;16.09;70.06;100357.86;123447;1099;104501;-77
2023/05/25 02:09:20;;;;;;;18.40;8.47;;;;;;;16.09;70.02;100357.86;123368;1098;104341;-75
2023/05/25 02:11:49;;;;;;;18.60;8.57;;;;;;;16.08;70.08;100353.47;123403;1099;104348;-75
2023/05/25 02:14:17;;;;;;;19.40;8.93;;;;;;;16.06;70.49;100363.13;123417;1099;104265;-76
2023/05/25 02:16:45;;;;;;;16.67;8.70;;;;;;;16.08;69.96;100357.84;123454;1099;104728;-75
2023/05/25 02:19:14;;;;;;;17.20;8.70;;;;;;;16.11;69.97;100356.14;123402;1099;104368;-74
2023/05/25 02:21:42;;;;;;;18.05;8.90;;;;;;;16.10;70.31;100358.77;123200;1099;104210;-75
2023/05/25 02:24:11;;;;;;;18.53;8.73;;;;;;;16.13;70.85;100366.75;122997;1099;104261;-75
2023/05/25 02:26:39;;;;;;;15.97;8.10;;;;;;;16.12;70.21;100368.48;123454;1099;104339;-76
2023/05/25 02:29:08;;;;;;;17.80;8.77;;;;;;;16.12;70.51;100373.78;123564;1099;104318;-75
2023/05/25 02:31:37;;;;;;;16.97;8.60;;;;;;;16.13;70.37;100370.27;123122;1099;104451;-75
2023/05/25 02:34:05;;;;;;;21.27;9.40;;;;;;;16.10;70.25;100375.53;123350;1099;104274;-75
2023/05/25 02:36:35;;;;;;;17.20;8.87;;;;;;;16.09;71.10;100376.39;123409;1098;104329;-75
2023/05/25 02:39:05;;;;;;;16.40;8.70;;;;;;;16.08;70.77;100376.37;123418;1099;104345;-76
2023/05/25 02:41:34;;;;;;;25.83;9.33;;;;;;;16.07;70.42;100374.62;123440;1099;104319;-76
2023/05/25 02:44:02;;;;;;;20.30;9.37;;;;;;;16.11;70.52;100381.70;123160;1099;104396;-76
2023/05/25 02:46:32;;;;;;;18.43;9.27;;;;;;;16.11;71.26;100374.67;123394;1099;104245;-76
2023/05/25 02:49:01;;;;;;;16.90;8.57;;;;;;;16.13;71.37;100372.92;123133;1102;104329;-75
2023/05/25 02:51:31;;;;;;;18.90;8.77;;;;;;;16.14;71.14;100374.70;123400;1099;104351;-75
2023/05/25 02:54:00;;;;;;;16.90;8.87;;;;;;;16.17;71.20;100371.19;123493;1099;104344;-76
2023/05/25 02:56:28;;;;;;;19.47;9.60;;;;;;;16.21;71.63;100374.78;123673;1099;104392;-74
2023/05/25 02:58:57;;;;;;;22.27;9.77;;;;;;;16.14;71.54;100374.70;123428;1099;104354;-76
2023/05/25 03:01:34;;;;;;;18.87;9.40;;;;;;;16.10;71.13;100382.59;123412;1099;111607;-75
2023/05/25 03:04:02;;;;;;;22.47;10.00;;;;;;;16.06;71.95;100381.65;124039;1099;104245;-75
2023/05/25 03:06:35;;;;;;;18.23;9.10;;;;;;;16.05;71.79;100381.63;123325;1099;104264;-75
2023/05/25 03:09:08;;;;;;;19.53;9.10;;;;;;;16.06;71.59;100384.30;123478;1099;104364;-74
2023/05/25 03:11:38;;;;;;;18.77;9.10;;;;;;;16.08;71.61;100379.94;123428;1099;105476;-75
2023/05/25 03:14:06;;;;;;;20.20;9.17;;;;;;;16.13;71.42;100385.28;123220;1099;104382;-76
2023/05/25 03:16:37;;;;;;;15.25;8.70;;;;;;;16.15;72.63;100389.70;123449;1099;104284;-76
2023/05/25 03:19:07;;;;;;;23.00;10.07;;;;;;;16.10;71.98;100391.41;123828;1099;104773;-75
2023/05/25 03:21:38;;;;;;;18.93;10.10;;;;;;;16.07;72.01;100396.67;123334;1099;104369;-76
2023/05/25 03:24:07;;;;;;;17.77;10.37;;;;;;;16.04;71.78;100396.64;123159;1102;104290;-76
2023/05/25 03:26:35;;;;;;;19.90;10.03;;;;;;;16.04;72.75;100393.11;123421;1099;104264;-76
2023/05/25 03:29:05;;;;;;;23.57;10.30;;;;;;;16.03;72.84;100399.27;123233;1099;104344;-77
2023/05/25 03:31:34;;;;;;;18.50;9.85;;;;;;;16.05;72.37;100397.52;123534;1099;104501;-75
2023/05/25 03:34:03;;;;;;;19.90;10.30;;;;;;;16.13;72.78;100398.52;123564;1099;104326;-76
2023/05/25 03:36:32;;;;;;;20.10;10.10;;;;;;;16.16;72.46;100396.78;123521;1099;104357;-76
2023/05/25 03:39:01;;;;;;;18.13;9.70;;;;;;;16.22;72.92;100400.36;123583;1099;104264;-75
2023/05/25 03:41:30;;;;;;;20.97;9.73;;;;;;;16.24;73.15;100398.63;123972;1099;104341;-76
2023/05/25 03:43:58;;;;;;;16.90;9.45;;;;;;;16.31;72.87;100400.45;124068;1098;104247;-79
2023/05/25 03:46:27;;;;;;;21.03;10.00;;;;;;;16.35;72.37;100397.86;124050;1099;104246;-78
2023/05/25 03:48:58;;;;;;;20.77;9.40;;;;;;;16.41;73.28;100391.75;123985;1099;104178;-77
2023/05/25 03:51:28;;;;;;;20.17;9.57;;;;;;;16.48;73.27;100395.34;123484;1099;104316;-76
2023/05/25 03:53:56;;;;;;;19.10;9.83;;;;;;;16.53;73.18;100397.17;123321;1099;104220;-75
2023/05/25 03:56:26;;;;;;;18.50;9.60;;;;;;;16.58;72.46;100401.60;123499;1099;104450;-75
2023/05/25 03:58:54;;;;;;;19.23;9.03;;;;;;;16.64;72.75;100399.02;123475;1099;104300;-75
2023/05/25 04:01:25;;;;;;;20.83;9.80;;;;;;;16.71;73.35;100396.44;123711;1099;104236;-75
2023/05/25 04:03:53;;;;;;;18.67;9.60;;;;;;;16.83;73.57;100397.44;123646;1099;104341;-75
2023/05/25 04:06:24;;;;;;;18.53;9.63;;;;;;;16.92;73.33;100396.64;123697;1099;104265;-74
2023/05/25 04:08:52;;;;;;;19.70;8.77;;;;;;;16.99;72.91;100401.12;123694;1099;104249;-75
2023/05/25 04:11:21;;;;;;;18.73;8.97;;;;;;;17.05;72.65;100402.05;123500;1099;104316;-74
2023/05/25 04:13:49;;;;;;;16.07;8.80;;;;;;;17.09;72.65;100408.25;123580;1099;104344;-72
2023/05/25 04:16:20;;;;;;;22.80;9.67;;;;;;;17.17;72.95;100413.62;123587;1099;104341;-74
2023/05/25 04:18:48;;;;;;;19.93;10.00;;;;;;;17.25;72.93;100404.85;124578;1098;104241;-72
2023/05/25 04:21:17;;;;;;;19.57;8.37;;;;;;;17.32;72.64;100394.28;123580;1099;104311;-72
2023/05/25 04:23:45;;;;;;;19.10;9.47;;;;;;;17.36;72.59;100401.39;123594;1099;104332;-73
2023/05/25 04:26:15;;;;;;;19.33;9.57;;;;;;;17.42;72.94;100401.41;123307;1099;104306;-74
2023/05/25 04:28:44;;;;;;;20.70;8.95;;;;;;;17.48;72.83;100404.09;123398;1099;104775;-72
2023/05/25 04:31:37;;;;;;;21.77;9.20;;;;;;;17.48;72.72;100405.88;123650;1098;104261;-73
2023/05/25 04:34:15;;;;;;;18.07;8.90;;;;;;;17.45;72.53;100405.85;123623;1099;104303;-74
2023/05/25 04:36:52;;;;;;;17.53;8.90;;;;;;;17.46;72.49;100407.64;123598;1099;104306;-73
2023/05/25 04:39:22;;;;;;;20.10;8.70;;;;;;;17.49;72.47;100408.53;124274;1099;104284;-78
2023/05/25 04:41:56;;;;;;;16.93;8.57;;;;;;;17.52;72.62;100411.20;123940;1099;104305;-72
2023/05/25 04:44:24;;;;;;;18.60;8.87;;;;;;;17.60;72.34;100411.25;123916;1099;104284;-72
2023/05/25 04:46:54;;;;;;;16.73;8.03;;;;;;;17.68;72.31;100411.29;123844;1099;104317;-74
2023/05/25 04:49:30;;;;;;;15.50;7.93;;;;;;;17.77;72.07;100417.52;123855;1099;104416;-75
2023/05/25 04:51:59;;;;;;;17.30;8.50;;;;;;;17.87;72.39;100423.78;124063;1098;104158;-77
2023/05/25 04:54:29;;;;;;;18.83;8.00;;;;;;;17.98;72.23;100420.30;124164;1099;104269;-74
2023/05/25 04:57:01;;;;;;;19.17;8.03;;;;;;;18.09;72.10;100419.48;124462;1099;104344;-73
2023/05/25 04:59:29;;;;;;;17.83;7.93;;;;;;;18.22;71.80;100422.17;124187;1099;104275;-77
2023/05/25 05:01:59;;;;;;;17.30;8.37;;;;;;;18.35;71.43;100418.66;124635;1099;103427;-76
2023/05/25 05:04:29;;;;;;;15.07;8.33;;;;;;;18.47;71.81;100426.66;124747;1099;104354;-78
2023/05/25 05:06:58;;;;;;;15.65;8.00;;;;;;;18.59;71.47;100424.89;124248;1099;104322;-79
2023/05/25 05:09:27;;;;;;;20.97;8.17;;;;;;;18.71;71.36;100432.02;124414;1099;104466;-75
2023/05/25 05:11:58;;;;;;;19.43;7.57;;;;;;;18.80;71.18;100437.34;124523;1099;104325;-85
2023/05/25 05:14:26;;;;;;;15.93;7.33;;;;;;;18.92;71.44;100424.09;124474;1099;102751;-76
2023/05/25 05:16:55;;;;;;;18.23;8.03;;;;;;;19.07;71.35;100424.97;124360;1099;104226;-78
2023/05/25 05:19:23;;;;;;;16.23;7.20;;;;;;;19.15;71.21;100432.06;124676;1099;104127;-77
2023/05/25 05:21:52;;;;;;;16.43;7.60;;;;;;;19.26;71.11;100429.40;124335;1099;104195;-76
2023/05/25 05:24:21;;;;;;;17.53;7.33;;;;;;;19.37;70.55;100424.94;124290;1099;104433;-76
2023/05/25 05:26:49;;;;;;;17.20;7.40;;;;;;;19.49;70.91;100432.00;124811;1099;104159;-76
2023/05/25 05:29:19;;;;;;;16.97;7.60;;;;;;;19.58;69.85;100429.31;125270;1099;104248;-80
2023/05/25 05:31:48;;;;;;;17.20;7.20;;;;;;;19.70;70.78;100433.73;124769;1099;104236;-76
2023/05/25 05:34:16;;;;;;;17.30;7.53;;;;;;;19.84;70.62;100438.17;124650;1099;103120;-77
2023/05/25 05:36:46;;;;;;;17.93;7.30;;;;;;;19.99;69.55;100439.88;125141;1099;104248;-76
2023/05/25 05:39:15;;;;;;;18.43;6.70;;;;;;;20.11;69.61;100443.37;124541;1099;102179;-80
2023/05/25 05:41:44;;;;;;;16.87;6.47;;;;;;;20.24;69.12;100436.23;124578;1099;104322;-81
2023/05/25 05:44:12;;;;;;;14.17;6.23;;;;;;;20.36;68.82;100435.26;124782;1099;104322;-74
2023/05/25 05:46:41;;;;;;;13.57;5.90;;;;;;;20.48;68.45;100448.52;124504;1099;104226;-78
2023/05/25 05:49:10;;;;;;;13.35;6.50;;;;;;;20.62;68.73;100442.23;125176;1099;104163;-80
2023/05/25 05:51:43;;;;;;;12.33;6.00;;;;;;;20.71;68.37;100457.29;124887;1099;104338;-85
2023/05/25 05:54:18;;;;;;;11.53;5.57;;;;;;;20.81;67.54;100454.55;124587;1099;102370;-81
2023/05/25 05:56:48;;;;;;;15.73;6.03;;;;;;;20.90;68.21;100450.95;125041;1099;102936;-76
2023/05/25 05:59:27;;;;;;;15.10;6.13;;;;;;;20.99;67.97;100445.55;125087;1099;102200;-76
2023/05/25 06:02:06;;;;;;;13.60;5.70;;;;;;;21.12;67.00;100448.11;124852;1099;104248;-79
2023/05/25 06:04:48;;;;;;;10.03;5.40;;;;;;;21.18;66.66;100451.59;124993;1099;103663;-77
2023/05/25 06:07:18;;;;;;;12.80;5.60;;;;;;;21.30;66.65;100452.38;124749;1099;102251;-73
2023/05/25 06:09:47;;;;;;;13.70;6.57;;;;;;;21.37;66.36;100449.64;125190;1099;103613;-73
2023/05/25 06:12:22;;;;;;;15.70;5.80;;;;;;;21.45;65.85;100449.56;124927;1099;104190;-76
2023/05/25 06:15:00;;;;;;;10.50;5.30;;;;;;;21.50;66.22;100442.45;124632;1099;102895;-74
2023/05/25 06:17:31;;;;;;;12.87;5.83;;;;;;;21.60;66.44;100447.66;125023;1099;104262;-77
2023/05/25 06:20:14;;;;;;;14.63;5.40;;;;;;;21.70;66.14;100446.68;124983;1099;104233;-76
2023/05/25 06:22:45;;;;;;;12.50;5.60;;;;;;;21.76;65.81;100445.73;124539;1099;104204;-86
2023/05/25 06:25:28;;;;;;;10.53;5.53;;;;;;;21.82;64.66;100443.00;125006;1099;104303;-83
2023/05/25 06:28:02;;;;;;;12.30;5.20;;;;;;;21.87;64.26;100450.03;124887;1099;104325;-81
2023/05/25 06:30:32;;;;;;;11.70;5.47;;;;;;;21.96;65.07;100451.73;124799;1099;102772;-84
2023/05/25 06:33:04;;;;;;;13.10;5.30;;;;;;;22.06;63.74;100444.47;125164;1099;104188;-78
2023/05/25 06:35:33;;;;;;;18.47;5.73;;;;;;;22.15;64.24;100454.17;124649;1099;104258;-79
2023/05/25 06:38:07;;;;;;;12.87;5.90;;;;;;;22.26;63.40;100452.23;124854;1099;104243;-85
2023/05/25 06:40:42;;;;;;;12.13;4.97;;;;;;;22.36;63.73;100453.92;124644;1099;103487;-81
2023/05/25 06:43:22;;;;;;;15.07;5.70;;;;;;;22.47;63.13;100451.11;125350;1099;104178;-83
2023/05/25 06:46:20;;;;;;;15.47;6.07;;;;;;;22.60;63.20;100457.16;125383;1099;102887;-82
2023/05/25 06:49:05;;;;;;;;;;;;;;;;;;;;;
2023/05/25 06:51:42;;;;;;;8.43;4.67;;;;;;;22.83;63.00;100454.14;125036;1099;104252;-76
2023/05/25 06:54:19;;;;;;;10.27;4.90;;;;;;;22.97;62.23;100459.27;124925;1099;102299;-78
2023/05/25 06:56:49;;;;;;;10.23;4.80;;;;;;;23.08;61.94;100453.75;124876;1099;103192;-81
2023/05/25 06:59:25;;;;;;;12.17;5.07;;;;;;;23.24;61.92;100457.95;125065;1099;104201;-80
2023/05/25 07:01:57;;;;;;;11.73;4.53;;;;;;;23.40;61.44;100455.88;125147;1099;102599;-77
2023/05/25 07:04:41;;;;;;;7.03;4.37;;;;;;;23.61;60.73;100454.61;124996;1099;104219;-81
2023/05/25 07:07:18;;;;;;;10.67;4.27;;;;;;;23.80;58.97;100454.26;125216;1099;103600;-82
2023/05/25 07:09:49;;;;;;;9.40;4.20;;;;;;;23.96;58.63;100461.09;124900;1099;102353;-80
2023/05/25 07:12:22;;;;;;;9.10;3.70;;;;;;;24.13;58.58;100462.55;124911;1099;104246;-82
2023/05/25 07:14:51;;;;;;;8.27;3.90;;;;;;;24.28;58.00;100470.27;125272;1099;102395;-81
2023/05/25 07:17:28;;;;;;;7.80;4.30;;;;;;;24.46;57.81;100468.97;125402;1099;102645;-82
2023/05/25 07:20:00;;;;;;;7.83;3.60;;;;;;;24.62;56.63;100474.94;124784;1099;102888;-75
2023/05/25 07:22:35;;;;;;;8.50;3.90;;;;;;;24.74;56.24;100466.60;125273;1099;103601;-77
2023/05/25 07:25:08;;;;;;;9.17;3.77;;;;;;;24.80;55.77;100467.37;125075;1099;104281;-78
2023/05/25 07:27:41;;;;;;;9.30;3.83;;;;;;;24.85;55.00;100470.81;124620;1099;103134;-79
2023/05/25 07:30:15;;;;;;;7.78;3.90;;;;;;;24.83;54.50;100468.17;124714;1099;104271;-84
2023/05/25 07:32:47;;;;;;;9.90;4.43;;;;;;;24.88;54.23;100462.69;126115;1099;102738;-78
2023/05/25 07:35:18;;;;;;;8.97;4.33;;;;;;;24.96;53.71;100471.43;125526;1099;104320;-80
2023/05/25 07:38:04;;;;;;;10.23;4.25;;;;;;;25.02;53.83;100465.91;124872;1099;103727;-80
2023/05/25 07:40:57;;;;;;;6.58;3.40;;;;;;;25.17;52.76;100472.72;124562;1099;104379;-78
2023/05/25 07:43:53;;;;;;;12.20;3.90;;;;;;;25.33;52.89;100462.48;125263;1099;102556;-85
2023/05/25 07:46:44;;;;;;;9.27;4.37;;;;;;;25.52;52.63;100467.37;125188;1099;104156;-79
2023/05/25 07:49:15;;;;;;;8.37;3.93;;;;;;;25.73;51.83;100466.80;125723;1099;104143;-80
2023/05/25 07:51:46;;;;;;;11.60;4.27;;;;;;;25.81;51.99;100467.46;124953;1099;104383;-83
2023/05/25 07:57:35;;;;;;;8.90;3.75;;;;;;;25.92;51.12;100460.91;124593;1102;102077;-75
2023/05/25 08:00:33;;;;;;;7.83;4.23;;;;;;;25.99;50.94;100474.17;124488;1102;103358;-78
2023/05/25 08:03:20;;;;;;;8.23;3.97;;;;;;;26.11;50.72;100472.05;124479;1102;103683;-82
2023/05/25 08:06:22;;;;;;;7.40;3.67;;;;;;;26.27;50.30;100465.30;124589;1102;104575;-80
2023/05/25 08:09:05;;;;;;;8.83;3.58;;;;;;;26.34;48.20;100463.30;124846;1099;104296;-79
2023/05/25 08:11:48;;;;;;;9.40;3.70;;;;;;;26.45;48.44;100469.22;126291;1099;101921;-80
2023/05/25 08:14:27;;;;;;;8.03;3.70;;;;;;;26.57;48.25;100462.59;126521;1098;103290;-79
2023/05/25 08:16:59;;;;;;;12.07;3.90;;;;;;;26.96;47.00;100472.14;126375;1098;102311;-80
2023/05/25 08:19:39;;;;;;;11.83;3.85;;;;;;;27.30;48.02;100462.94;127040;1098;102911;-81
2023/05/25 08:22:09;;;;;;;7.07;3.73;;;;;;;27.55;46.97;100453.11;126208;1099;101886;-84
2023/05/25 08:24:57;;;;;;;8.50;3.90;;;;;;;27.79;46.23;100458.55;126378;1098;102150;-79
2023/05/25 08:27:33;;;;;;;;;;;;;;;28.09;45.93;100463.77;127092;1097;102674;-82
2023/05/25 08:30:24;;;;;;;7.30;3.50;;;;;;;28.32;46.39;100463.77;126591;1098;101973;-83
2023/05/25 08:36:00;;;;;;;7.03;3.53;;;;;;;28.45;45.34;100452.49;125495;1099;104176;-84
2023/05/25 08:38:30;;;;;;;7.60;3.27;;;;;;;28.35;44.54;100459.20;124982;1099;104444;-77
2023/05/25 08:41:20;;;;;;;4.90;3.27;;;;;;;28.08;43.48;100467.39;124896;1099;104179;-81
2023/05/25 08:47:14;;;;;;;7.17;3.20;;;;;;;27.98;42.43;100465.03;125154;1099;102893;-82
2023/05/25 08:49:53;;;;;;;6.30;3.00;;;;;;;28.11;42.88;100462.78;124721;1099;102457;-78
2023/05/25 08:53:02;;;;;;;4.17;2.73;;;;;;;28.30;42.06;100459.39;124691;1099;102798;-79
2023/05/25 08:59:37;;;;;;;8.30;2.80;;;;;;;28.21;41.81;100447.12;125170;1099;108659;-82
2023/05/25 09:02:35;;;;;;;8.63;2.90;;;;;;;28.25;42.07;100439.77;126267;1099;104140;-81
2023/05/25 09:05:04;;;;;;;4.60;3.17;;;;;;;28.41;41.82;100442.78;125186;1099;104261;-80
2023/05/25 09:07:39;;;;;;;5.43;3.10;;;;;;;28.46;41.34;100435.38;124950;1099;104264;-78
2023/05/25 09:10:10;;;;;;;5.57;2.90;;;;;;;28.58;41.38;100440.31;125028;1099;104169;-78
2023/05/25 09:12:42;;;;;;;6.97;2.90;;;;;;;28.59;41.35;100435.78;124724;1099;102789;-78
2023/05/25 09:15:12;;;;;;;10.23;2.97;;;;;;;28.46;40.25;100430.84;124975;1098;104188;-78
2023/05/25 09:17:41;;;;;;;7.13;2.80;;;;;;;28.55;40.38;100431.41;124761;1099;104272;-79
2023/05/25 09:20:12;;;;;;;4.50;2.70;;;;;;;28.69;40.16;100420.98;124448;1100;102558;-78
2023/05/25 09:22:45;;;;;;;4.63;2.90;;;;;;;28.87;39.94;100413.92;124584;1099;103116;-76
2023/05/25 09:25:19;;;;;;;5.33;3.00;;;;;;;28.94;39.39;100420.84;125160;1099;102959;-84
2023/05/25 09:27:57;;;;;;;4.37;2.73;;;;;;;28.84;39.20;100419.45;124832;1099;102349;-82
2023/05/25 09:30:31;;;;;;;5.83;2.60;;;;;;;28.64;38.30;100418.47;124545;1099;104169;-79
2023/05/25 09:33:13;;;;;;;6.20;2.73;;;;;;;28.33;38.80;100430.45;124602;1099;104201;-82
2023/05/25 09:35:50;;;;;;;4.40;2.85;;;;;;;28.27;39.16;100419.91;125799;1102;103289;-83
2023/05/25 09:38:24;;;;;;;6.47;3.03;;;;;;;28.37;38.64;100409.62;125455;1099;104099;-81
2023/05/25 09:41:05;;;;;;;4.83;2.70;;;;;;;28.38;38.65;100418.61;125359;1099;104158;-79
2023/05/25 09:43:41;;;;;;;4.33;2.70;;;;;;;28.48;38.87;100417.28;125443;1099;104235;-79
2023/05/25 09:46:13;;;;;;;5.47;3.00;;;;;;;28.54;38.83;100417.04;125153;1099;102509;-81
2023/05/25 09:48:58;;;;;;;6.00;3.10;;;;;;;28.51;38.86;100414.47;125112;1099;103109;-79
2023/05/25 09:51:35;;;;;;;6.40;3.00;;;;;;;28.48;39.22;100411.89;126102;1099;102401;-79
2023/05/25 09:54:15;;;;;;;7.17;3.47;;;;;;;28.31;39.08;100405.36;126576;1099;101870;-84
2023/05/25 09:56:50;;;;;;;6.93;3.50;;;;;;;28.17;39.07;100402.30;126714;1099;102877;-81
2023/05/25 10:02:40;;;;;;;4.60;3.20;;;;;;;27.87;39.02;100390.86;126931;1098;103180;-81
2023/05/25 10:05:41;;;;;;;5.27;3.00;;;;;;;27.93;39.13;100398.72;126708;1099;102612;-82
2023/05/25 10:11:18;;;;;;;8.90;3.60;;;;;;;28.23;38.32;100393.10;126657;1098;111613;-83
2023/05/25 10:13:57;;;;;;;6.70;3.47;;;;;;;28.35;38.71;100394.45;117980;1098;10001586;-79
2023/05/25 10:16:37;;;;;;;8.13;3.67;;;;;;;28.47;37.86;100380.44;126708;1098;102806;-84
2023/05/25 10:19:20;;;;;;;9.93;3.50;;;;;;;28.47;37.98;100375.04;126103;1099;101914;-85
2023/05/25 10:22:04;;;;;;;7.30;3.47;;;;;;;28.66;37.79;100370.69;126199;1099;110849;-82
2023/05/25 10:24:47;;;;;;;6.05;3.20;;;;;;;28.65;37.88;100377.02;126152;1099;101859;-83
2023/05/25 10:27:32;;;;;;;8.53;3.40;;;;;;;28.72;38.16;100379.46;126128;1099;101922;-81
2023/05/25 10:30:02;;;;;;;12.00;3.45;;;;;;;28.75;38.06;100377.54;126723;1099;102446;-76
2023/05/25 10:32:33;;;;;;;6.87;3.30;;;;;;;28.74;38.05;100380.30;126814;1098;101990;-79
2023/05/25 10:35:12;;;;;;;6.13;3.27;;;;;;;28.67;37.50;100385.95;126869;1099;102438;-81
2023/05/25 10:37:47;;;;;;;4.80;3.30;;;;;;;28.46;37.48;100373.30;126831;1098;102401;-79
2023/05/25 10:40:17;;;;;;;7.33;3.40;;;;;;;28.21;37.54;100366.19;126307;1098;102994;-78
2023/05/25 10:42:46;;;;;;;5.23;3.00;;;;;;;28.07;37.33;100368.56;126752;1099;102173;-78
2023/05/25 10:45:19;;;;;;;10.30;3.20;;;;;;;27.93;37.67;100356.45;126128;1099;102527;-79
2023/05/25 10:47:56;;;;;;;5.47;3.37;;;;;;;27.79;37.50;100359.67;126635;1099;102490;-82
2023/05/25 10:50:37;;;;;;;7.37;3.40;;;;;;;27.67;37.36;100356.56;126576;1098;102787;-82
2023/05/25 10:53:15;;;;;;;6.13;3.87;;;;;;;27.51;37.95;100342.80;126654;1099;103227;-85
2023/05/25 10:56:08;;;;;;;9.80;4.00;;;;;;;27.54;38.01;100337.29;126693;1099;103258;-81
2023/05/25 10:58:47;;;;;;;13.93;3.90;;;;;;;27.64;37.75;100337.81;126691;1099;101961;-78
2023/05/25 11:01:24;;;;;;;9.47;4.30;;;;;;;27.54;38.07;100321.99;126139;1099;101964;-79
2023/05/25 11:04:21;;;;;;;9.30;3.70;;;;;;;27.46;38.30;100323.20;126782;1098;102022;-80
2023/05/25 11:07:18;;;;;;;9.30;3.60;;;;;;;27.24;38.48;100314.08;126904;1098;102833;-83
2023/05/25 11:10:04;;;;;;;14.83;3.63;;;;;;;27.02;38.43;100316.67;126811;1096;102934;-81
2023/05/25 11:12:52;;;;;;;;;;;;;;;;;;;;;
2023/05/25 11:15:32;;;;;;;9.40;3.67;;;;;;;26.71;38.84;100319.55;126694;1099;102415;-82
2023/05/25 11:18:03;;;;;;;11.00;3.77;;;;;;;26.66;39.57;100317.02;126946;1098;102341;-82
2023/05/25 11:20:40;;;;;;;11.20;3.83;;;;;;;26.80;39.16;100312.95;126293;1099;102701;-82
2023/05/25 11:23:38;;;;;;;8.87;3.77;;;;;;;26.97;39.69;100302.47;125139;1099;107915;-82
2023/05/25 11:26:27;;;;;;;7.60;4.00;;;;;;;27.09;39.80;100312.81;125508;1099;104198;-82
2023/05/25 11:29:24;;;;;;;9.80;3.77;;;;;;;27.39;39.44;100306.39;125381;1099;104159;-80
2023/05/25 11:31:55;;;;;;;6.87;3.63;;;;;;;27.53;39.91;100313.97;126730;1099;102058;-81
2023/05/25 11:34:26;;;;;;;;;;;;;;;27.61;39.51;100320.83;126576;1098;104291;-79
2023/05/25 11:37:00;;;;;;;11.50;3.65;;;;;;;27.77;39.58;100342.69;125091;1099;102093;-81
2023/05/25 11:39:41;;;;;;;6.60;3.27;;;;;;;27.80;38.60;100372.22;124969;1099;104195;-82
2023/05/25 11:42:12;;;;;;;13.23;3.07;;;;;;;27.07;35.41;100375.75;124896;1099;103333;-79
2023/05/25 11:44:43;;;;;;;10.33;2.97;;;;;;;26.18;35.93;100385.77;125110;1099;104173;-78
2023/05/25 11:47:17;;;;;;;9.30;2.63;;;;;;;25.57;36.04;100399.19;125234;1099;102822;-79
2023/05/25 11:49:48;;;;;;;11.27;2.90;;;;;;;25.31;36.96;100378.41;125005;1099;104171;-83
2023/05/25 11:52:21;;;;;;;4.80;2.50;;;;;;;25.15;37.08;100393.13;125183;1099;104288;-83
2023/05/25 11:55:20;;;;;;;14.10;2.80;;;;;;;24.81;37.60;100384.15;125183;1099;104227;-76
2023/05/25 11:57:58;;;;;;;7.53;3.00;;;;;;;24.46;38.74;100391.20;124961;1099;101940;-75